Time;durP1;ratioP1;P1;durP2;ratioP2;P2;SDS_P1;SDS_P2;PMS_P1;PMS_P2;Temp;Humidity;BMP_temperature;BMP_pressure;BME280_temperature;BME280_humidity;BME280_pressure;Samples;Min_cycle;Max_cycle;Signal;HPM_P1;HPM_P2
2022/03/25 00:01:02;;;;;;;95.33;56.73;;;;;;;3.58;85.29;103004.88;5011883;28;20983;-42
2022/03/25 00:03:30;;;;;;;78.13;52.80;;;;;;;3.56;85.55;102997.97;5012244;28;20433;-43
2022/03/25 00:05:58;;;;;;;90.50;55.20;;;;;;;3.56;85.84;103013.81;5011609;28;20437;-44
2022/03/25 00:08:26;;;;;;;85.80;56.20;;;;;;;3.54;85.73;103016.56;5012162;28;20433;-44
2022/03/25 00:10:54;;;;;;;84.47;55.23;;;;;;;3.53;86.01;103021.91;5011730;28;20499;-45
2022/03/25 00:13:23;;;;;;;81.87;53.90;;;;;;;3.52;86.34;103018.44;5011940;28;20947;-44
2022/03/25 00:15:51;;;;;;;88.40;55.87;;;;;;;3.49;86.36;103018.63;5011717;28;20468;-46
2022/03/25 00:18:18;;;;;;;87.53;54.20;;;;;;;3.49;86.47;103023.06;5011777;28;20475;-44
2022/03/25 00:20:48;;;;;;;72.63;51.80;;;;;;;3.46;86.33;103025.91;5011679;28;20489;-43
2022/03/25 00:23:16;;;;;;;88.43;54.07;;;;;;;3.43;86.65;103015.53;5011969;28;20490;-45
2022/03/25 00:25:43;;;;;;;86.60;59.10;;;;;;;3.43;87.15;103021.66;5011747;28;20921;-45
2022/03/25 00:28:11;;;;;;;88.13;58.47;;;;;;;3.43;87.13;103019.03;5011477;28;20908;-46
2022/03/25 00:30:40;;;;;;;90.47;55.60;;;;;;;3.40;86.75;103021.00;5011569;28;20464;-45
2022/03/25 00:33:08;;;;;;;84.10;56.03;;;;;;;3.35;87.13;103016.00;5011730;28;20516;-46
2022/03/25 00:35:36;;;;;;;79.93;54.10;;;;;;;3.31;86.76;103020.63;5011857;28;20433;-45
2022/03/25 00:38:04;;;;;;;85.47;58.53;;;;;;;3.26;87.40;103022.69;5011170;28;20572;-44
2022/03/25 00:40:32;;;;;;;86.53;56.73;;;;;;;3.21;87.26;103016.00;5011354;28;20457;-46
2022/03/25 00:43:00;;;;;;;85.90;52.60;;;;;;;3.18;87.29;103018.81;5011969;28;20506;-45
2022/03/25 00:45:29;;;;;;;84.27;55.20;;;;;;;3.14;87.63;103020.78;5022688;28;20511;-45
2022/03/25 00:47:58;;;;;;;79.17;52.30;;;;;;;3.12;87.71;103019.19;5022079;28;20457;-45
2022/03/25 00:50:26;;;;;;;81.00;53.10;;;;;;;3.08;87.72;103010.63;5011536;28;20819;-45
2022/03/25 00:52:55;;;;;;;95.87;60.70;;;;;;;3.07;87.76;103014.22;5012016;28;20619;-46
2022/03/25 00:55:23;;;;;;;86.90;54.33;;;;;;;3.06;87.87;103011.66;5011843;28;20464;-45
2022/03/25 00:57:50;;;;;;;85.53;54.60;;;;;;;3.02;87.87;103015.41;5011198;28;20505;-50
2022/03/25 01:00:20;;;;;;;77.87;52.20;;;;;;;2.99;88.08;103005.03;5011394;28;20461;-45
2022/03/25 01:02:47;;;;;;;92.90;55.33;;;;;;;2.95;88.43;103001.78;5011615;28;20856;-47
2022/03/25 01:05:17;;;;;;;86.47;54.00;;;;;;;2.92;88.28;102998.47;5011816;28;20439;-46
2022/03/25 01:07:45;;;;;;;78.00;52.87;;;;;;;2.90;88.56;103000.34;5011035;28;20984;-46
2022/03/25 01:10:13;;;;;;;88.23;53.80;;;;;;;2.88;89.00;102996.94;5011525;28;20532;-49
2022/03/25 01:12:41;;;;;;;83.57;55.10;;;;;;;2.86;89.01;102997.06;5011553;28;20456;-46
2022/03/25 01:15:10;;;;;;;89.27;53.87;;;;;;;2.86;88.65;102994.41;5011369;28;20472;-47
2022/03/25 01:17:37;;;;;;;88.33;54.83;;;;;;;2.85;88.82;102997.97;5011005;28;20544;-46
2022/03/25 01:20:06;;;;;;;95.23;54.20;;;;;;;2.83;89.29;102993.75;5011643;28;20452;-45
2022/03/25 01:22:35;;;;;;;76.67;51.07;;;;;;;2.81;88.92;103003.53;5011355;28;20503;-43
2022/03/25 01:25:03;;;;;;;84.00;52.70;;;;;;;2.81;89.24;103000.91;5011362;28;20924;-45
2022/03/25 01:27:31;;;;;;;74.67;53.03;;;;;;;2.81;88.92;103003.53;5011196;28;20544;-44
2022/03/25 01:29:59;;;;;;;90.80;58.17;;;;;;;2.81;89.42;102999.09;5012445;28;20527;-45
2022/03/25 01:32:27;;;;;;;87.47;54.93;;;;;;;2.81;89.51;103014.09;5014433;28;21058;-45
2022/03/25 01:34:55;;;;;;;91.27;54.67;;;;;;;2.79;89.25;103008.88;5015121;28;20437;-45
2022/03/25 01:37:23;;;;;;;81.13;52.93;;;;;;;2.76;89.64;103003.78;5014368;28;20476;-43
2022/03/25 01:39:52;;;;;;;86.57;54.80;;;;;;;2.72;89.36;102997.84;5014753;28;20543;-46
2022/03/25 01:42:29;;;;;;;85.07;52.70;;;;;;;2.70;89.50;103004.16;5014384;28;20507;-47
2022/03/25 01:44:57;;;;;;;77.50;50.57;;;;;;;2.68;89.34;103006.06;5021275;28;20432;-45
2022/03/25 01:47:28;;;;;;;88.50;56.20;;;;;;;2.66;89.50;103003.50;5029271;28;20492;-45
2022/03/25 01:49:56;;;;;;;88.50;56.03;;;;;;;2.64;89.59;103009.78;5014499;28;20456;-44
2022/03/25 01:52:24;;;;;;;77.77;52.27;;;;;;;2.61;89.33;103004.69;5014472;28;20492;-44
2022/03/25 01:54:54;;;;;;;96.23;55.07;;;;;;;2.60;89.40;102995.09;5014472;28;20441;-47
2022/03/25 01:57:25;;;;;;;94.20;56.30;;;;;;;2.56;89.10;102991.81;5014030;28;20480;-43
2022/03/25 01:59:54;;;;;;;86.70;54.77;;;;;;;2.57;89.50;102987.41;5014412;28;20532;-45
2022/03/25 02:02:22;;;;;;;75.53;53.10;;;;;;;2.56;89.90;102986.56;5014490;28;20500;-44
2022/03/25 02:04:51;;;;;;;84.27;54.90;;;;;;;2.54;89.81;102977.03;5014761;28;20437;-48
2022/03/25 02:07:18;;;;;;;85.97;54.00;;;;;;;2.51;89.53;102972.78;5013778;28;20501;-47
2022/03/25 02:09:46;;;;;;;89.27;55.00;;;;;;;2.48;89.49;102985.31;5014263;28;20555;-46
2022/03/25 02:12:15;;;;;;;82.60;52.70;;;;;;;2.47;89.43;102975.69;5014110;28;20456;-48
2022/03/25 02:14:43;;;;;;;81.93;53.30;;;;;;;2.47;89.90;102979.19;5013986;28;20525;-50
2022/03/25 02:17:10;;;;;;;88.87;55.63;;;;;;;2.43;89.80;102969.75;5013678;28;20460;-45
2022/03/25 02:19:38;;;;;;;86.20;55.43;;;;;;;2.45;90.09;102974.94;5013798;28;20483;-46
2022/03/25 02:22:08;;;;;;;89.67;54.03;;;;;;;2.44;90.23;102979.38;5013582;28;20980;-46
2022/03/25 02:24:35;;;;;;;84.20;55.13;;;;;;;2.44;90.16;102979.38;5013832;28;20417;-44
2022/03/25 02:27:04;;;;;;;90.97;55.60;;;;;;;2.43;90.19;102985.56;5013590;28;20544;-43
2022/03/25 02:29:32;;;;;;;84.57;54.83;;;;;;;2.41;90.01;102983.97;5013848;28;20433;-46
2022/03/25 02:32:00;;;;;;;75.83;50.77;;;;;;;2.40;90.46;102988.38;5013539;28;20461;-46
2022/03/25 02:34:28;;;;;;;97.43;59.50;;;;;;;2.36;90.42;102993.91;5013724;28;20425;-47
2022/03/25 02:36:55;;;;;;;85.03;54.00;;;;;;;2.33;90.68;102992.28;5013289;28;20469;-45
2022/03/25 02:39:24;;;;;;;84.13;54.57;;;;;;;2.31;90.75;102990.69;5013775;28;20567;-43
2022/03/25 02:41:52;;;;;;;75.80;49.33;;;;;;;2.28;90.83;102989.06;5013143;28;21017;-45
2022/03/25 02:44:19;;;;;;;95.63;52.30;;;;;;;2.26;90.70;102985.69;5015127;28;20440;-45
2022/03/25 02:46:47;;;;;;;87.17;54.30;;;;;;;2.20;90.91;102971.09;5032781;28;20482;-46
2022/03/25 02:49:16;;;;;;;87.73;55.33;;;;;;;2.16;90.84;102971.34;5013859;28;20429;-47
2022/03/25 02:51:43;;;;;;;81.90;51.30;;;;;;;2.12;90.85;102983.03;5012954;28;20979;-45
2022/03/25 02:54:11;;;;;;;87.37;54.33;;;;;;;2.09;91.10;102983.19;5013489;28;20782;-43
2022/03/25 02:56:40;;;;;;;85.50;54.40;;;;;;;2.06;91.29;102981.56;5012859;28;20457;-44
2022/03/25 02:59:08;;;;;;;83.20;50.43;;;;;;;2.05;90.93;102982.50;5013328;28;20479;-44
2022/03/25 03:01:37;;;;;;;77.90;52.57;;;;;;;2.02;90.72;102987.09;5012944;28;20468;-43
2022/03/25 03:04:04;;;;;;;90.60;56.27;;;;;;;2.01;90.78;102993.28;5013238;28;20480;-45
2022/03/25 03:06:32;;;;;;;83.97;53.13;;;;;;;1.98;91.40;102989.03;5012774;28;20471;-46
2022/03/25 03:09:00;;;;;;;94.73;53.17;;;;;;;1.95;91.17;102986.59;5013223;28;20429;-47
2022/03/25 03:11:28;;;;;;;89.80;51.93;;;;;;;1.90;91.17;102982.53;5012960;28;20453;-46
2022/03/25 03:13:58;;;;;;;84.37;51.47;;;;;;;1.88;91.27;102987.84;5012955;28;20425;-46
2022/03/25 03:16:25;;;;;;;88.83;51.93;;;;;;;1.85;91.64;102992.47;5012516;28;20465;-45
2022/03/25 03:18:53;;;;;;;94.03;55.00;;;;;;;1.84;91.85;102986.34;5013010;28;20433;-47
2022/03/25 03:21:24;;;;;;;82.50;52.10;;;;;;;1.82;91.85;102982.13;5012495;28;20493;-44
2022/03/25 03:23:53;;;;;;;83.77;52.53;;;;;;;1.80;91.83;102979.56;5012876;28;20875;-45
2022/03/25 03:26:20;;;;;;;81.83;51.07;;;;;;;1.78;91.63;102981.44;5012321;28;20579;-45
2022/03/25 03:28:48;;;;;;;101.33;55.40;;;;;;;1.78;92.10;102985.84;5012597;28;20534;-43
2022/03/25 03:31:17;;;;;;;75.37;50.37;;;;;;;1.77;91.96;102986.75;5012646;28;20483;-43
2022/03/25 03:33:45;;;;;;;78.27;51.57;;;;;;;1.77;91.93;102990.25;5012768;28;20468;-47
2022/03/25 03:36:12;;;;;;;75.53;52.30;;;;;;;1.78;92.32;102983.19;5012065;28;20452;-48
2022/03/25 03:38:40;;;;;;;83.07;50.83;;;;;;;1.78;92.24;102976.16;5012596;28;20966;-44
2022/03/25 03:41:07;;;;;;;79.17;52.10;;;;;;;1.78;92.23;102981.44;5011997;28;20489;-44
2022/03/25 03:43:36;;;;;;;78.77;50.23;;;;;;;1.77;91.65;102992.88;5012242;28;20528;-44
2022/03/25 03:46:03;;;;;;;74.80;47.13;;;;;;;1.78;91.51;102983.19;5027825;28;20875;-44
2022/03/25 03:48:33;;;;;;;75.03;49.50;;;;;;;1.77;92.04;102984.13;5018603;28;20432;-46
2022/03/25 03:51:00;;;;;;;82.90;52.50;;;;;;;1.76;91.76;102991.19;5011976;28;20446;-47
2022/03/25 03:53:28;;;;;;;78.53;50.53;;;;;;;1.74;91.71;102994.81;5012134;28;20873;-45
2022/03/25 03:55:55;;;;;;;97.00;52.73;;;;;;;1.74;91.80;102994.81;5011735;28;20812;-44
2022/03/25 03:58:23;;;;;;;77.00;50.60;;;;;;;1.73;91.93;102995.78;5012140;28;20436;-46
2022/03/25 04:00:51;;;;;;;90.97;53.87;;;;;;;1.74;91.86;102993.03;5011976;28;20503;-47
2022/03/25 04:03:18;;;;;;;90.37;57.80;;;;;;;1.74;91.79;102997.44;5012283;28;20433;-46
2022/03/25 04:05:48;;;;;;;86.43;55.67;;;;;;;1.72;91.96;102994.91;5012059;28;20491;-45
2022/03/25 04:08:15;;;;;;;94.70;58.13;;;;;;;1.73;92.33;102990.50;5011835;28;20456;-44
2022/03/25 04:10:43;;;;;;;80.30;55.83;;;;;;;1.71;91.94;102993.22;5011744;28;20555;-49
2022/03/25 04:13:11;;;;;;;96.63;54.60;;;;;;;1.72;91.95;102996.69;5012193;28;20812;-43
2022/03/25 04:15:38;;;;;;;92.80;57.93;;;;;;;1.71;92.29;102995.84;5012188;28;20778;-46
2022/03/25 04:18:06;;;;;;;92.87;55.20;;;;;;;1.70;92.09;103002.06;5011501;28;20469;-47
2022/03/25 04:20:34;;;;;;;89.50;53.40;;;;;;;1.68;92.37;103004.75;5011717;28;20551;-46
2022/03/25 04:23:03;;;;;;;86.10;57.30;;;;;;;1.68;92.06;102999.50;5011869;28;20441;-46
2022/03/25 04:25:31;;;;;;;93.30;53.77;;;;;;;1.66;91.93;103005.78;5011871;28;20495;-45
2022/03/25 04:27:59;;;;;;;83.97;56.30;;;;;;;1.64;92.21;103005.84;5011568;28;20486;-45
2022/03/25 04:30:32;;;;;;;85.30;56.80;;;;;;;1.66;92.08;103000.50;5011708;28;20421;-43
2022/03/25 04:33:01;;;;;;;93.97;59.60;;;;;;;1.65;92.82;103006.69;5011932;28;20535;-45
2022/03/25 04:35:30;;;;;;;88.90;57.00;;;;;;;1.64;92.54;103002.41;5011965;28;20433;-46
2022/03/25 04:37:59;;;;;;;88.20;53.57;;;;;;;1.65;92.59;103004.06;5011273;28;20998;-46
2022/03/25 04:40:29;;;;;;;83.90;53.30;;;;;;;1.65;92.43;103007.56;5011489;28;20568;-45
2022/03/25 04:42:59;;;;;;;79.87;55.20;;;;;;;1.64;92.57;103008.47;5011756;28;20433;-45
2022/03/25 04:45:28;;;;;;;82.93;55.33;;;;;;;1.62;92.56;103006.88;5022424;28;20443;-45
2022/03/25 04:47:56;;;;;;;79.77;54.40;;;;;;;1.61;92.99;103007.81;5022228;28;20461;-43
2022/03/25 04:50:24;;;;;;;91.67;58.37;;;;;;;1.59;92.25;103005.25;5011259;28;20437;-46
2022/03/25 04:52:52;;;;;;;98.77;57.07;;;;;;;1.57;92.49;103008.91;5011812;28;20447;-48
2022/03/25 04:55:20;;;;;;;80.13;53.60;;;;;;;1.56;92.40;103008.06;5011668;28;20520;-43
2022/03/25 04:57:49;;;;;;;97.20;55.30;;;;;;;1.55;92.77;103005.53;5011083;28;20472;-45
2022/03/25 05:00:18;;;;;;;87.67;53.50;;;;;;;1.55;92.84;103010.78;5011282;28;20963;-46
2022/03/25 05:02:46;;;;;;;79.83;53.40;;;;;;;1.54;92.89;103007.31;5011313;28;20440;-45
2022/03/25 05:05:14;;;;;;;83.63;56.50;;;;;;;1.53;92.75;103005.59;5013419;28;20440;-45
2022/03/25 05:07:43;;;;;;;86.20;52.60;;;;;;;1.55;92.95;103005.53;5014995;28;20548;-44
2022/03/25 05:10:11;;;;;;;93.20;57.20;;;;;;;1.57;92.53;103016.78;5015145;28;20439;-43
2022/03/25 05:12:39;;;;;;;71.80;51.00;;;;;;;1.56;93.10;103010.69;5015344;28;20475;-46
2022/03/25 05:15:10;;;;;;;77.67;52.40;;;;;;;1.58;92.45;103014.06;5015056;28;20483;-46
2022/03/25 05:17:44;;;;;;;92.00;54.27;;;;;;;1.59;92.37;103010.53;5014825;28;20471;-45
2022/03/25 05:20:12;;;;;;;79.87;51.70;;;;;;;1.63;93.03;103011.19;5014945;28;20852;-42
2022/03/25 05:22:40;;;;;;;80.47;52.30;;;;;;;1.64;92.63;103008.47;5015138;28;20875;-46
2022/03/25 05:25:09;;;;;;;81.20;53.17;;;;;;;1.69;93.20;103016.13;5015002;28;20439;-45
2022/03/25 05:27:44;;;;;;;77.93;51.97;;;;;;;1.76;92.83;103022.75;5014396;28;20476;-46
2022/03/25 05:30:13;;;;;;;75.43;52.70;;;;;;;1.83;92.54;103032.00;5014736;28;20438;-42
2022/03/25 05:32:42;;;;;;;77.10;51.67;;;;;;;1.88;93.11;103031.75;5014995;28;20943;-45
2022/03/25 05:35:10;;;;;;;87.93;54.40;;;;;;;1.95;92.63;103033.09;5014817;28;20437;-46
2022/03/25 05:37:39;;;;;;;71.47;50.83;;;;;;;2.00;92.73;103037.16;5014264;28;20753;-46
2022/03/25 05:40:10;;;;;;;83.20;54.80;;;;;;;2.08;92.99;103034.13;5014463;28;20439;-43
2022/03/25 05:42:38;;;;;;;69.83;50.77;;;;;;;2.18;92.68;103030.88;5014512;28;20468;-45
2022/03/25 05:45:08;;;;;;;71.83;51.70;;;;;;;2.31;93.32;103031.03;5022601;28;20436;-48
2022/03/25 05:47:39;;;;;;;85.67;54.50;;;;;;;2.49;93.01;103037.88;5027739;28;20544;-45
2022/03/25 05:50:09;;;;;;;74.07;51.27;;;;;;;2.73;93.40;103040.88;5014658;28;20429;-47
2022/03/25 05:52:37;;;;;;;72.23;51.17;;;;;;;3.01;94.23;103034.81;5014342;28;20449;-44
2022/03/25 05:55:05;;;;;;;76.03;52.60;;;;;;;3.30;94.04;103036.53;5014334;28;20532;-45
2022/03/25 05:57:33;;;;;;;76.70;47.97;;;;;;;3.57;93.40;103045.38;5014032;28;20469;-46
2022/03/25 06:00:01;;;;;;;61.17;48.63;;;;;;;3.91;93.13;103046.75;5014461;28;20433;-45
2022/03/25 06:02:28;;;;;;;68.40;49.97;;;;;;;4.27;92.90;103040.91;5014085;28;20481;-46
2022/03/25 06:04:58;;;;;;;69.90;49.60;;;;;;;4.67;92.74;103039.09;5014408;28;20433;-47
2022/03/25 06:07:26;;;;;;;65.30;46.53;;;;;;;5.06;91.87;103038.22;5013954;28;20461;-46
2022/03/25 06:09:54;;;;;;;66.57;50.27;;;;;;;5.43;90.15;103047.94;5014672;28;20439;-46
2022/03/25 06:12:21;;;;;;;61.30;50.00;;;;;;;5.82;89.59;103039.00;5014144;28;20456;-47
2022/03/25 06:14:49;;;;;;;70.67;50.73;;;;;;;6.17;87.27;103039.97;5014158;28;20482;-43
2022/03/25 06:17:17;;;;;;;67.63;48.40;;;;;;;6.55;85.27;103039.75;5013198;28;20464;-45
2022/03/25 06:19:44;;;;;;;54.23;44.23;;;;;;;6.76;81.62;103043.47;5013865;28;20433;-44
2022/03/25 06:22:13;;;;;;;54.73;46.93;;;;;;;7.10;79.93;103058.50;5013768;28;20495;-43
2022/03/25 06:24:41;;;;;;;67.97;49.80;;;;;;;7.43;78.47;103046.25;5014011;28;20536;-50
2022/03/25 06:27:09;;;;;;;59.80;50.97;;;;;;;7.84;77.53;103059.75;5013567;28;20552;-45
2022/03/25 06:29:37;;;;;;;61.10;48.60;;;;;;;8.24;76.33;103049.41;5013874;28;20433;-46
2022/03/25 06:32:07;;;;;;;59.80;46.50;;;;;;;8.70;75.07;103051.78;5013436;28;20457;-46
2022/03/25 06:34:35;;;;;;;53.10;44.33;;;;;;;9.12;75.06;103056.13;5013907;28;20792;-46
2022/03/25 06:37:04;;;;;;;51.90;43.80;;;;;;;9.42;72.48;103050.84;5013338;28;20473;-46
2022/03/25 06:39:33;;;;;;;49.60;44.23;;;;;;;9.84;73.36;103050.72;5013726;28;20798;-47
2022/03/25 06:42:01;;;;;;;49.30;43.17;;;;;;;10.10;70.13;103040.38;5013152;28;20485;-48
2022/03/25 06:44:29;;;;;;;54.70;45.10;;;;;;;10.44;70.18;103055.06;5016267;28;20447;-49
2022/03/25 06:46:56;;;;;;;53.20;45.40;;;;;;;10.67;68.90;103052.97;5032055;28;20464;-47
2022/03/25 06:49:25;;;;;;;45.00;40.10;;;;;;;10.87;67.07;103051.97;5013377;28;20437;-46
2022/03/25 06:51:53;;;;;;;45.77;39.90;;;;;;;10.99;64.79;103045.50;5013266;28;20666;-47
2022/03/25 06:54:21;;;;;;;46.10;40.40;;;;;;;11.23;64.08;103045.84;5013199;28;20441;-43
2022/03/25 06:56:51;;;;;;;47.00;41.63;;;;;;;11.44;62.17;103043.00;5012898;28;21014;-45
2022/03/25 06:59:21;;;;;;;41.17;36.73;;;;;;;11.76;61.86;103045.25;5013112;28;20437;-43
2022/03/25 07:01:49;;;;;;;41.83;37.73;;;;;;;11.99;60.85;103047.38;5013044;28;20572;-44
2022/03/25 07:04:17;;;;;;;45.20;40.60;;;;;;;12.18;60.01;103052.59;5013277;28;20433;-44
2022/03/25 07:06:49;;;;;;;41.90;37.40;;;;;;;12.41;59.72;103053.00;5012896;28;20818;-44
2022/03/25 07:09:17;;;;;;;44.17;38.57;;;;;;;12.46;57.33;103053.38;5013094;28;20440;-43
2022/03/25 07:11:45;;;;;;;42.50;37.90;;;;;;;12.37;55.94;103054.28;5012668;28;20453;-43
2022/03/25 07:14:14;;;;;;;45.13;40.03;;;;;;;12.42;56.95;103048.50;5012899;28;20980;-45
2022/03/25 07:16:42;;;;;;;39.63;35.70;;;;;;;12.39;56.32;103057.69;5012637;28;20586;-45
2022/03/25 07:19:10;;;;;;;39.43;35.33;;;;;;;12.32;56.35;103056.59;5013011;28;20528;-46
2022/03/25 07:21:38;;;;;;;39.43;35.17;;;;;;;12.28;56.39;103060.56;5012477;28;20480;-47
2022/03/25 07:24:06;;;;;;;53.23;36.33;;;;;;;12.21;55.99;103062.16;5012816;28;20437;-43
2022/03/25 07:26:34;;;;;;;42.33;35.53;;;;;;;12.10;55.16;103073.06;5012173;28;20469;-45
2022/03/25 07:29:01;;;;;;;42.13;33.87;;;;;;;11.90;55.00;103069.66;5012321;28;20443;-43
2022/03/25 07:31:32;;;;;;;42.33;34.43;;;;;;;11.82;54.41;103061.56;5012544;28;20459;-43
2022/03/25 07:34:00;;;;;;;47.07;37.73;;;;;;;11.65;55.39;103071.16;5012657;28;20472;-46
2022/03/25 07:36:27;;;;;;;39.70;35.20;;;;;;;11.64;54.94;103064.13;5012162;28;20555;-43
2022/03/25 07:38:55;;;;;;;52.20;35.03;;;;;;;11.60;52.97;103067.25;5012431;28;20436;-43
2022/03/25 07:41:23;;;;;;;40.53;34.00;;;;;;;11.68;55.08;103060.16;5012277;28;20485;-46
2022/03/25 07:43:52;;;;;;;44.00;34.37;;;;;;;11.76;54.29;103066.66;5012709;28;20469;-45
2022/03/25 07:46:20;;;;;;;42.30;35.20;;;;;;;11.94;54.37;103068.38;5029911;28;20824;-44
2022/03/25 07:48:49;;;;;;;45.60;35.33;;;;;;;12.23;54.89;103065.53;5016613;28;20440;-46
2022/03/25 07:51:16;;;;;;;40.67;33.07;;;;;;;12.45;53.47;103069.59;5012049;28;20543;-48
2022/03/25 07:53:44;;;;;;;46.80;36.77;;;;;;;12.70;53.39;103067.00;5012521;28;20564;-46
2022/03/25 07:56:12;;;;;;;42.33;31.57;;;;;;;13.04;52.90;103061.75;5011778;28;20952;-43
2022/03/25 07:58:40;;;;;;;47.30;36.80;;;;;;;13.26;52.01;103076.50;5012406;28;20470;-45
2022/03/25 08:01:07;;;;;;;43.73;34.67;;;;;;;13.30;50.46;103081.38;5012130;28;20460;-45
2022/03/25 08:03:35;;;;;;;46.43;35.17;;;;;;;13.32;51.04;103076.69;5012151;28;20476;-45
2022/03/25 08:06:04;;;;;;;43.20;35.67;;;;;;;13.29;51.06;103079.69;5011514;28;20479;-47
2022/03/25 08:08:32;;;;;;;41.77;34.20;;;;;;;13.29;50.24;103081.50;5012290;28;20437;-45
2022/03/25 08:11:00;;;;;;;44.53;34.43;;;;;;;13.27;48.94;103083.53;5011823;28;20480;-45
2022/03/25 08:13:27;;;;;;;41.70;34.97;;;;;;;13.31;49.49;103082.22;5012121;28;20936;-45
2022/03/25 08:15:55;;;;;;;43.70;34.60;;;;;;;13.22;48.13;103084.00;5011500;28;20540;-44
2022/03/25 08:18:24;;;;;;;39.43;32.63;;;;;;;13.27;49.24;103084.38;5012055;28;20499;-45
2022/03/25 08:20:53;;;;;;;48.10;34.17;;;;;;;13.03;48.31;103086.00;5011555;28;20485;-46
2022/03/25 08:28:51;;;;;;;38.33;31.13;;;;;;;13.21;48.95;103086.81;5011897;28;20731;-46
2022/03/25 08:31:38;;;;;;;42.70;32.17;;;;;;;13.22;48.48;103097.41;5011428;28;20461;-44
2022/03/25 08:34:08;;;;;;;42.97;33.47;;;;;;;13.24;49.17;103099.91;5012074;28;20444;-44
2022/03/25 08:36:36;;;;;;;50.43;33.00;;;;;;;13.23;48.01;103093.72;5011260;28;21065;-43
2022/03/25 08:39:05;;;;;;;36.63;30.97;;;;;;;13.36;49.93;103095.97;5013338;28;20954;-43
2022/03/25 08:41:33;;;;;;;45.07;35.33;;;;;;;13.42;47.58;103100.72;5015465;28;20468;-45
2022/03/25 08:44:00;;;;;;;45.63;33.83;;;;;;;13.41;46.56;103106.25;5015676;28;20488;-45
2022/03/25 08:46:28;;;;;;;43.00;33.63;;;;;;;13.43;48.11;103102.41;5034409;28;20907;-45
2022/03/25 08:48:56;;;;;;;41.60;31.40;;;;;;;13.53;48.41;103099.63;5018774;28;20429;-43
2022/03/25 08:51:24;;;;;;;41.77;30.07;;;;;;;13.69;47.80;103092.50;5015288;28;20452;-48
2022/03/25 08:53:51;;;;;;;36.80;28.63;;;;;;;13.83;46.90;103094.56;5015509;28;20433;-43
2022/03/25 08:56:22;;;;;;;38.77;30.57;;;;;;;13.89;46.82;103101.13;5015101;28;20555;-49
2022/03/25 08:58:50;;;;;;;44.93;32.40;;;;;;;13.87;45.78;103108.50;5015689;28;20433;-50
2022/03/25 09:01:17;;;;;;;43.10;32.20;;;;;;;13.62;45.87;103104.84;5015460;28;20467;-45
2022/03/25 09:03:46;;;;;;;36.30;30.80;;;;;;;13.42;47.39;103111.44;5015395;28;20499;-45
2022/03/25 09:06:14;;;;;;;39.53;32.90;;;;;;;13.56;48.21;103105.47;5015010;28;20460;-44
2022/03/25 09:08:41;;;;;;;49.40;33.53;;;;;;;13.64;47.43;103100.19;5015412;28;20459;-48
2022/03/25 09:11:10;;;;;;;43.63;32.87;;;;;;;13.68;48.17;103100.69;5015290;28;20544;-45
2022/03/25 09:13:40;;;;;;;40.30;31.47;;;;;;;13.46;50.21;103109.28;5015392;28;20524;-45
2022/03/25 09:16:07;;;;;;;43.40;33.93;;;;;;;13.48;50.39;103112.63;5015017;28;20655;-46
2022/03/25 09:18:35;;;;;;;42.87;33.10;;;;;;;13.76;49.99;103093.53;5015095;28;20438;-48
2022/03/25 09:21:03;;;;;;;50.53;35.03;;;;;;;14.03;49.86;103105.03;5014640;28;20457;-48
2022/03/25 09:23:31;;;;;;;47.17;34.20;;;;;;;14.08;49.92;103100.88;5015218;28;20844;-48
2022/03/25 09:26:00;;;;;;;41.10;35.20;;;;;;;14.01;48.90;103094.47;5014510;28;20437;-45
2022/03/25 09:28:28;;;;;;;43.50;33.10;;;;;;;14.13;48.92;103103.91;5014949;28;20531;-46
2022/03/25 09:30:57;;;;;;;42.83;34.47;;;;;;;14.27;49.68;103103.28;5014751;28;20464;-47
2022/03/25 09:33:26;;;;;;;39.23;33.43;;;;;;;14.48;49.53;103110.06;5014809;28;20549;-46
2022/03/25 09:35:54;;;;;;;45.83;33.97;;;;;;;14.55;49.89;103106.56;5014385;28;20828;-45
2022/03/25 09:38:22;;;;;;;39.50;32.30;;;;;;;14.65;49.95;103104.56;5015011;28;20531;-46
2022/03/25 09:40:50;;;;;;;42.90;33.67;;;;;;;14.81;50.26;103099.19;5014397;28;20983;-43
2022/03/25 09:43:19;;;;;;;41.10;32.00;;;;;;;14.97;51.00;103095.66;5014818;28;20476;-45
2022/03/25 09:45:47;;;;;;;48.43;33.43;;;;;;;14.88;49.34;103102.88;5028257;28;20442;-45
2022/03/25 09:48:16;;;;;;;42.40;34.80;;;;;;;15.00;50.25;103105.22;5022661;28;20468;-43
2022/03/25 09:50:44;;;;;;;48.70;34.57;;;;;;;14.98;50.08;103105.41;5013434;28;20464;-47
2022/03/25 09:53:32;;;;;;;46.60;34.10;;;;;;;15.10;50.52;103104.06;5014519;28;20444;-43
2022/03/25 09:55:59;;;;;;;44.63;37.30;;;;;;;15.19;51.47;103103.06;5014049;28;20796;-43
2022/03/25 09:58:28;;;;;;;41.63;33.93;;;;;;;14.90;51.37;103106.25;5014368;28;21036;-43
2022/03/25 10:00:56;;;;;;;46.97;33.53;;;;;;;14.72;52.23;103110.97;5014311;28;20488;-43
2022/03/25 10:03:32;;;;;;;37.37;32.30;;;;;;;14.66;52.66;103118.84;5014147;28;20567;-45
2022/03/25 10:06:01;;;;;;;41.70;32.17;;;;;;;14.37;52.65;103116.56;5013983;28;20436;-45
2022/03/25 10:08:39;;;;;;;47.40;33.57;;;;;;;14.30;53.47;103124.44;5014357;28;20433;-43
2022/03/25 10:11:21;;;;;;;45.80;32.47;;;;;;;14.11;54.39;103130.06;5013983;28;20507;-45
2022/03/25 10:13:50;;;;;;;47.13;34.90;;;;;;;13.86;54.10;103128.25;5014287;28;20524;-46
2022/03/25 10:16:28;;;;;;;46.37;33.77;;;;;;;13.81;52.36;103123.38;5013779;28;20539;-44
2022/03/25 10:18:58;;;;;;;46.53;35.20;;;;;;;14.02;53.78;103130.19;5014116;28;20445;-44
2022/03/25 10:21:27;;;;;;;51.73;36.20;;;;;;;14.20;53.23;103130.94;5013630;28;20535;-46
2022/03/25 10:23:55;;;;;;;44.23;35.03;;;;;;;14.35;54.13;103115.91;5013877;28;20473;-44
2022/03/25 10:26:35;;;;;;;52.67;36.07;;;;;;;14.47;53.67;103124.50;5013575;28;20457;-47
2022/03/25 10:29:04;;;;;;;50.37;35.43;;;;;;;14.59;54.44;103118.66;5013960;28;20472;-45
2022/03/25 10:31:32;;;;;;;46.37;37.60;;;;;;;14.85;53.34;103118.50;5013422;28;20460;-43
2022/03/25 10:34:03;;;;;;;45.43;34.27;;;;;;;14.97;51.88;103117.16;5013483;28;20929;-45
2022/03/25 10:36:30;;;;;;;45.03;34.17;;;;;;;14.90;51.99;103116.19;5013099;28;20461;-47
2022/03/25 10:39:01;;;;;;;49.07;35.00;;;;;;;14.57;52.53;103118.00;5013752;28;20434;-46
2022/03/25 10:41:37;;;;;;;43.83;34.10;;;;;;;14.61;52.08;103108.56;5013271;28;20522;-44
2022/03/25 10:44:06;;;;;;;47.17;34.53;;;;;;;14.61;53.13;103110.41;5013631;28;20479;-46
2022/03/25 10:46:36;;;;;;;50.67;34.20;;;;;;;14.58;50.70;103110.75;5021078;28;20467;-46
2022/03/25 10:49:07;;;;;;;47.50;35.30;;;;;;;14.90;52.07;103108.94;5031060;28;20522;-44
2022/03/25 10:51:36;;;;;;;48.07;35.33;;;;;;;14.87;51.72;103105.75;5033071;28;20904;-46
2022/03/25 10:54:07;;;;;;;47.50;35.67;;;;;;;14.89;52.24;103099.22;5033277;28;20432;-47
2022/03/25 10:56:46;;;;;;;47.33;36.23;;;;;;;15.36;51.15;103099.31;5032599;28;20498;-43
2022/03/25 10:59:25;;;;;;;45.80;35.17;;;;;;;15.56;50.83;103096.31;5033351;28;20416;-48
2022/03/25 11:01:55;;;;;;;43.00;32.67;;;;;;;15.33;51.41;103090.75;5031886;28;20448;-48
2022/03/25 11:04:25;;;;;;;42.23;34.80;;;;;;;15.33;50.57;103094.28;5032586;28;20987;-46
2022/03/25 11:06:53;;;;;;;45.77;35.93;;;;;;;15.47;50.76;103093.59;5032441;28;20498;-46
2022/03/25 11:09:22;;;;;;;51.77;36.90;;;;;;;15.81;51.94;103089.81;5032749;28;20436;-44
2022/03/25 11:11:56;;;;;;;53.70;35.00;;;;;;;16.11;50.76;103089.00;5032619;28;20460;-43
2022/03/25 11:14:24;;;;;;;48.07;37.33;;;;;;;16.34;50.44;103092.56;5032897;28;20432;-45
2022/03/25 11:16:55;;;;;;;50.57;36.90;;;;;;;16.37;49.77;103091.38;5056726;23;20452;-50
2022/03/25 11:19:25;;;;;;;47.63;37.07;;;;;;;16.48;49.95;103085.59;5025109;28;20460;-50
2022/03/25 11:21:54;;;;;;;45.07;37.27;;;;;;;16.57;49.43;103085.41;5032358;28;20432;-52
2022/03/25 11:24:24;;;;;;;49.50;37.60;;;;;;;16.57;49.08;103084.56;5032764;28;20563;-51
2022/03/25 11:26:55;;;;;;;43.93;36.00;;;;;;;16.44;49.19;103089.66;5032224;28;20559;-50